首页
METAR-TAF:

METAR-TAF

机场 :

波纳佩国际机场

波纳佩, 密克罗尼西亚群岛

纬度: 06-59N, 经度: 158-12E, 海拔: 2米

当前天气观测

该预报发布于22分钟前的23:50 UTC
风速7节,风向
温度 30°C
湿度 75%
气压 1009 hPa
能見度: 24.1公里
散云层高于1800英尺
多云层高于13000英尺
阴天层高于30000英尺

METAR: PTPN 162350Z 35007KT 15SM SCT018 BKN130 OVC300 30/25 A2981

时间: 11:12 (00:12 UTC)

预报

该预报发布于52分钟前的23:20 UTC
预报有效从17日的 00点(UTC)到 17日的 24点(UTC)
风速10节,风向西北
能見度: 10公里
散云层高于1800英尺
多云层高于13000英尺
附近有阵雨

TAF: PTPN 162320Z 1700/1724 31010KT P6SM VCSH SCT018 BKN130

超过4000个机场的气象观测和天气预报(METAR&TAF报告)。

可查询的气象台以黄色和红色小点在地图上表示。

将鼠标移到小点上方,可查看气象台名称。

然后点击查看天气观测和预报。

如需切换地图:点击带黑十字的绿色按钮放大地图;点击带横线的绿色按钮缩小地图;或者点击绿色箭头查看邻近地区的地图。


METAR-TAF: